sensor_id;sensor_type;location;lat;lon;timestamp;P1;durP1;ratioP1;P2;durP2;ratioP2
11691;SDS011;33659;42.672;23.354;2022-07-24T00:01:29;11.68;;;5.40;;
11691;SDS011;33659;42.672;23.354;2022-07-24T00:03:55;8.38;;;4.72;;
11691;SDS011;33659;42.672;23.354;2022-07-24T00:06:22;9.27;;;5.32;;
11691;SDS011;33659;42.672;23.354;2022-07-24T00:08:49;12.95;;;6.13;;
11691;SDS011;33659;42.672;23.354;2022-07-24T00:11:17;6.63;;;5.35;;
11691;SDS011;33659;42.672;23.354;2022-07-24T00:13:44;8.63;;;5.38;;
11691;SDS011;33659;42.672;23.354;2022-07-24T00:16:11;9.50;;;5.50;;
11691;SDS011;33659;42.672;23.354;2022-07-24T00:18:38;10.48;;;5.80;;
11691;SDS011;33659;42.672;23.354;2022-07-24T00:21:05;10.68;;;5.55;;
11691;SDS011;33659;42.672;23.354;2022-07-24T00:23:32;7.47;;;5.45;;
11691;SDS011;33659;42.672;23.354;2022-07-24T00:25:58;9.15;;;4.95;;
11691;SDS011;33659;42.672;23.354;2022-07-24T00:28:27;9.40;;;4.90;;
11691;SDS011;33659;42.672;23.354;2022-07-24T00:30:54;11.95;;;5.22;;
11691;SDS011;33659;42.672;23.354;2022-07-24T00:33:20;7.68;;;5.05;;
11691;SDS011;33659;42.672;23.354;2022-07-24T00:35:47;6.60;;;5.03;;
11691;SDS011;33659;42.672;23.354;2022-07-24T00:38:14;8.90;;;5.13;;
11691;SDS011;33659;42.672;23.354;2022-07-24T00:40:41;11.07;;;5.95;;
11691;SDS011;33659;42.672;23.354;2022-07-24T00:43:07;10.45;;;5.72;;
11691;SDS011;33659;42.672;23.354;2022-07-24T00:45:36;10.90;;;5.07;;
11691;SDS011;33659;42.672;23.354;2022-07-24T00:48:03;5.95;;;5.05;;
11691;SDS011;33659;42.672;23.354;2022-07-24T00:50:30;9.00;;;5.03;;
11691;SDS011;33659;42.672;23.354;2022-07-24T00:52:57;8.15;;;4.93;;
11691;SDS011;33659;42.672;23.354;2022-07-24T00:55:24;8.48;;;5.63;;
11691;SDS011;33659;42.672;23.354;2022-07-24T00:57:52;12.70;;;5.43;;
11691;SDS011;33659;42.672;23.354;2022-07-24T01:00:19;9.70;;;5.40;;
11691;SDS011;33659;42.672;23.354;2022-07-24T01:02:48;9.85;;;5.25;;
11691;SDS011;33659;42.672;23.354;2022-07-24T01:05:16;12.75;;;5.53;;
11691;SDS011;33659;42.672;23.354;2022-07-24T01:07:44;11.85;;;5.40;;
11691;SDS011;33659;42.672;23.354;2022-07-24T01:10:11;9.13;;;5.03;;
11691;SDS011;33659;42.672;23.354;2022-07-24T01:12:39;12.15;;;7.05;;
11691;SDS011;33659;42.672;23.354;2022-07-24T01:15:07;12.82;;;5.55;;
11691;SDS011;33659;42.672;23.354;2022-07-24T01:17:36;10.55;;;6.18;;
11691;SDS011;33659;42.672;23.354;2022-07-24T01:20:08;12.32;;;5.95;;
11691;SDS011;33659;42.672;23.354;2022-07-24T01:22:37;10.73;;;6.40;;
11691;SDS011;33659;42.672;23.354;2022-07-24T01:25:04;10.73;;;5.72;;
11691;SDS011;33659;42.672;23.354;2022-07-24T01:27:31;11.88;;;5.65;;
11691;SDS011;33659;42.672;23.354;2022-07-24T01:29:58;9.85;;;6.57;;
11691;SDS011;33659;42.672;23.354;2022-07-24T01:32:25;7.75;;;5.30;;
11691;SDS011;33659;42.672;23.354;2022-07-24T01:34:52;11.02;;;6.25;;
11691;SDS011;33659;42.672;23.354;2022-07-24T01:37:18;11.00;;;5.88;;
11691;SDS011;33659;42.672;23.354;2022-07-24T01:39:47;14.77;;;6.40;;
11691;SDS011;33659;42.672;23.354;2022-07-24T01:42:13;10.00;;;5.45;;
11691;SDS011;33659;42.672;23.354;2022-07-24T01:44:40;11.82;;;5.97;;
11691;SDS011;33659;42.672;23.354;2022-07-24T01:47:07;12.63;;;6.22;;
11691;SDS011;33659;42.672;23.354;2022-07-24T01:49:34;10.02;;;6.03;;
11691;SDS011;33659;42.672;23.354;2022-07-24T01:52:00;9.32;;;5.90;;
11691;SDS011;33659;42.672;23.354;2022-07-24T01:54:27;10.88;;;5.80;;
11691;SDS011;33659;42.672;23.354;2022-07-24T01:56:56;8.73;;;5.72;;
11691;SDS011;33659;42.672;23.354;2022-07-24T01:59:22;11.82;;;5.28;;
11691;SDS011;33659;42.672;23.354;2022-07-24T02:01:49;8.90;;;5.50;;
11691;SDS011;33659;42.672;23.354;2022-07-24T02:04:16;6.18;;;5.05;;
11691;SDS011;33659;42.672;23.354;2022-07-24T02:06:43;8.25;;;5.07;;
11691;SDS011;33659;42.672;23.354;2022-07-24T02:09:09;12.60;;;5.97;;
11691;SDS011;33659;42.672;23.354;2022-07-24T02:11:36;9.10;;;5.60;;
11691;SDS011;33659;42.672;23.354;2022-07-24T02:14:04;9.00;;;5.45;;
11691;SDS011;33659;42.672;23.354;2022-07-24T02:16:31;6.72;;;5.40;;
11691;SDS011;33659;42.672;23.354;2022-07-24T02:18:58;9.52;;;5.18;;
11691;SDS011;33659;42.672;23.354;2022-07-24T02:21:25;13.75;;;5.55;;
11691;SDS011;33659;42.672;23.354;2022-07-24T02:23:52;10.38;;;5.15;;
11691;SDS011;33659;42.672;23.354;2022-07-24T02:26:18;9.15;;;5.75;;
11691;SDS011;33659;42.672;23.354;2022-07-24T02:28:45;9.40;;;5.38;;
11691;SDS011;33659;42.672;23.354;2022-07-24T02:31:13;10.68;;;5.15;;
11691;SDS011;33659;42.672;23.354;2022-07-24T02:33:40;15.45;;;5.20;;
11691;SDS011;33659;42.672;23.354;2022-07-24T02:36:07;10.45;;;5.68;;
11691;SDS011;33659;42.672;23.354;2022-07-24T02:38:34;7.55;;;4.93;;
11691;SDS011;33659;42.672;23.354;2022-07-24T02:41:01;6.95;;;4.95;;
11691;SDS011;33659;42.672;23.354;2022-07-24T02:43:28;9.32;;;5.47;;
11691;SDS011;33659;42.672;23.354;2022-07-24T02:45:55;14.48;;;5.40;;
11691;SDS011;33659;42.672;23.354;2022-07-24T02:48:23;10.30;;;4.90;;
11691;SDS011;33659;42.672;23.354;2022-07-24T02:50:50;11.60;;;5.00;;
11691;SDS011;33659;42.672;23.354;2022-07-24T02:53:17;10.80;;;5.22;;
11691;SDS011;33659;42.672;23.354;2022-07-24T02:55:44;8.40;;;4.80;;
11691;SDS011;33659;42.672;23.354;2022-07-24T02:58:10;11.32;;;5.43;;
11691;SDS011;33659;42.672;23.354;2022-07-24T03:00:37;6.65;;;5.28;;
11691;SDS011;33659;42.672;23.354;2022-07-24T03:03:04;13.43;;;5.45;;
11691;SDS011;33659;42.672;23.354;2022-07-24T03:05:32;12.02;;;5.32;;
11691;SDS011;33659;42.672;23.354;2022-07-24T03:07:59;11.57;;;5.95;;
11691;SDS011;33659;42.672;23.354;2022-07-24T03:10:26;7.97;;;5.07;;
11691;SDS011;33659;42.672;23.354;2022-07-24T03:12:52;8.60;;;5.65;;
11691;SDS011;33659;42.672;23.354;2022-07-24T03:15:19;9.05;;;5.18;;
11691;SDS011;33659;42.672;23.354;2022-07-24T03:17:49;9.70;;;5.40;;
11691;SDS011;33659;42.672;23.354;2022-07-24T03:20:17;7.82;;;5.25;;
11691;SDS011;33659;42.672;23.354;2022-07-24T03:22:46;11.35;;;6.57;;
11691;SDS011;33659;42.672;23.354;2022-07-24T03:25:13;8.82;;;4.90;;
11691;SDS011;33659;42.672;23.354;2022-07-24T03:27:40;8.30;;;5.43;;
11691;SDS011;33659;42.672;23.354;2022-07-24T03:30:07;8.35;;;5.30;;
11691;SDS011;33659;42.672;23.354;2022-07-24T03:32:36;11.70;;;5.45;;
11691;SDS011;33659;42.672;23.354;2022-07-24T03:35:03;9.52;;;5.47;;
11691;SDS011;33659;42.672;23.354;2022-07-24T03:37:30;11.13;;;6.07;;
11691;SDS011;33659;42.672;23.354;2022-07-24T03:39:58;9.82;;;5.50;;
11691;SDS011;33659;42.672;23.354;2022-07-24T03:42:25;8.57;;;5.43;;
11691;SDS011;33659;42.672;23.354;2022-07-24T03:44:53;10.23;;;6.05;;
11691;SDS011;33659;42.672;23.354;2022-07-24T03:47:19;8.18;;;5.72;;
11691;SDS011;33659;42.672;23.354;2022-07-24T03:49:46;12.93;;;5.75;;
11691;SDS011;33659;42.672;23.354;2022-07-24T03:52:13;10.77;;;5.70;;
11691;SDS011;33659;42.672;23.354;2022-07-24T03:54:40;10.88;;;6.05;;
11691;SDS011;33659;42.672;23.354;2022-07-24T03:57:08;11.40;;;6.03;;
11691;SDS011;33659;42.672;23.354;2022-07-24T03:59:35;11.23;;;5.75;;
11691;SDS011;33659;42.672;23.354;2022-07-24T04:02:02;13.70;;;6.53;;
11691;SDS011;33659;42.672;23.354;2022-07-24T04:04:29;11.10;;;6.05;;
11691;SDS011;33659;42.672;23.354;2022-07-24T04:06:56;12.85;;;5.80;;
11691;SDS011;33659;42.672;23.354;2022-07-24T04:09:22;8.85;;;6.30;;
11691;SDS011;33659;42.672;23.354;2022-07-24T04:11:49;8.98;;;5.80;;
11691;SDS011;33659;42.672;23.354;2022-07-24T04:14:17;9.05;;;6.22;;
11691;SDS011;33659;42.672;23.354;2022-07-24T04:16:44;7.68;;;5.65;;
11691;SDS011;33659;42.672;23.354;2022-07-24T04:19:12;9.45;;;5.18;;
11691;SDS011;33659;42.672;23.354;2022-07-24T04:21:39;12.32;;;6.55;;
11691;SDS011;33659;42.672;23.354;2022-07-24T04:24:06;8.52;;;4.95;;
11691;SDS011;33659;42.672;23.354;2022-07-24T04:26:33;12.15;;;6.03;;
11691;SDS011;33659;42.672;23.354;2022-07-24T04:29:00;13.93;;;5.90;;
11691;SDS011;33659;42.672;23.354;2022-07-24T04:31:28;9.15;;;5.38;;
11691;SDS011;33659;42.672;23.354;2022-07-24T04:33:55;9.32;;;5.25;;
11691;SDS011;33659;42.672;23.354;2022-07-24T04:36:22;13.90;;;6.63;;
11691;SDS011;33659;42.672;23.354;2022-07-24T04:38:49;11.15;;;6.35;;
11691;SDS011;33659;42.672;23.354;2022-07-24T04:41:15;13.20;;;6.10;;
11691;SDS011;33659;42.672;23.354;2022-07-24T04:43:42;15.70;;;6.43;;
11691;SDS011;33659;42.672;23.354;2022-07-24T04:46:09;8.07;;;6.03;;
11691;SDS011;33659;42.672;23.354;2022-07-24T04:48:37;10.07;;;5.80;;
11691;SDS011;33659;42.672;23.354;2022-07-24T04:51:04;13.48;;;7.05;;
11691;SDS011;33659;42.672;23.354;2022-07-24T04:53:31;9.50;;;6.72;;
11691;SDS011;33659;42.672;23.354;2022-07-24T04:55:58;12.35;;;6.25;;
11691;SDS011;33659;42.672;23.354;2022-07-24T04:58:25;11.82;;;6.38;;
11691;SDS011;33659;42.672;23.354;2022-07-24T05:00:52;13.95;;;6.80;;
11691;SDS011;33659;42.672;23.354;2022-07-24T05:03:19;7.45;;;5.68;;
11691;SDS011;33659;42.672;23.354;2022-07-24T05:05:47;7.75;;;5.65;;
11691;SDS011;33659;42.672;23.354;2022-07-24T05:08:14;15.27;;;7.93;;
11691;SDS011;33659;42.672;23.354;2022-07-24T05:10:41;15.02;;;6.97;;
11691;SDS011;33659;42.672;23.354;2022-07-24T05:13:08;7.80;;;5.50;;
11691;SDS011;33659;42.672;23.354;2022-07-24T05:15:34;13.20;;;6.63;;
11691;SDS011;33659;42.672;23.354;2022-07-24T05:18:01;14.07;;;7.88;;
11691;SDS011;33659;42.672;23.354;2022-07-24T05:20:28;7.95;;;6.47;;
11691;SDS011;33659;42.672;23.354;2022-07-24T05:22:56;8.68;;;7.32;;
11691;SDS011;33659;42.672;23.354;2022-07-24T05:25:23;13.75;;;6.93;;
11691;SDS011;33659;42.672;23.354;2022-07-24T05:27:50;12.18;;;6.97;;
11691;SDS011;33659;42.672;23.354;2022-07-24T05:30:17;12.95;;;7.05;;
11691;SDS011;33659;42.672;23.354;2022-07-24T05:32:44;10.75;;;6.35;;
11691;SDS011;33659;42.672;23.354;2022-07-24T05:35:10;11.35;;;7.03;;
11691;SDS011;33659;42.672;23.354;2022-07-24T05:37:37;8.88;;;6.22;;
11691;SDS011;33659;42.672;23.354;2022-07-24T05:40:06;9.73;;;6.15;;
11691;SDS011;33659;42.672;23.354;2022-07-24T05:42:33;9.27;;;6.22;;
11691;SDS011;33659;42.672;23.354;2022-07-24T05:45:00;9.65;;;6.50;;
11691;SDS011;33659;42.672;23.354;2022-07-24T05:47:27;8.60;;;6.60;;
11691;SDS011;33659;42.672;23.354;2022-07-24T05:49:53;13.57;;;7.05;;
11691;SDS011;33659;42.672;23.354;2022-07-24T05:52:20;11.10;;;6.30;;
11691;SDS011;33659;42.672;23.354;2022-07-24T05:54:47;12.50;;;6.82;;
11691;SDS011;33659;42.672;23.354;2022-07-24T05:57:15;12.80;;;6.47;;
11691;SDS011;33659;42.672;23.354;2022-07-24T05:59:42;12.32;;;7.20;;
11691;SDS011;33659;42.672;23.354;2022-07-24T06:02:08;18.45;;;7.85;;
11691;SDS011;33659;42.672;23.354;2022-07-24T06:04:35;10.55;;;6.63;;
11691;SDS011;33659;42.672;23.354;2022-07-24T06:07:07;13.23;;;7.30;;
11691;SDS011;33659;42.672;23.354;2022-07-24T06:09:34;14.25;;;7.40;;
11691;SDS011;33659;42.672;23.354;2022-07-24T06:12:01;13.63;;;7.10;;
11691;SDS011;33659;42.672;23.354;2022-07-24T06:14:29;11.45;;;6.72;;
11691;SDS011;33659;42.672;23.354;2022-07-24T06:16:56;9.73;;;6.32;;
11691;SDS011;33659;42.672;23.354;2022-07-24T06:19:23;11.73;;;6.57;;
11691;SDS011;33659;42.672;23.354;2022-07-24T06:21:50;16.90;;;7.00;;
11691;SDS011;33659;42.672;23.354;2022-07-24T06:24:17;12.15;;;6.45;;
11691;SDS011;33659;42.672;23.354;2022-07-24T06:26:44;8.90;;;6.20;;
11691;SDS011;33659;42.672;23.354;2022-07-24T06:29:10;9.93;;;6.65;;
11691;SDS011;33659;42.672;23.354;2022-07-24T06:31:39;12.05;;;5.93;;
11691;SDS011;33659;42.672;23.354;2022-07-24T06:34:05;11.80;;;6.40;;
11691;SDS011;33659;42.672;23.354;2022-07-24T06:36:32;9.98;;;6.25;;
11691;SDS011;33659;42.672;23.354;2022-07-24T06:38:59;9.77;;;6.55;;
11691;SDS011;33659;42.672;23.354;2022-07-24T06:41:25;9.40;;;6.68;;
11691;SDS011;33659;42.672;23.354;2022-07-24T06:43:52;14.23;;;6.85;;
11691;SDS011;33659;42.672;23.354;2022-07-24T06:46:19;12.38;;;6.75;;
11691;SDS011;33659;42.672;23.354;2022-07-24T06:48:47;9.50;;;6.22;;
11691;SDS011;33659;42.672;23.354;2022-07-24T06:51:14;12.98;;;6.55;;
11691;SDS011;33659;42.672;23.354;2022-07-24T06:53:42;9.02;;;6.45;;
11691;SDS011;33659;42.672;23.354;2022-07-24T06:56:12;13.77;;;6.40;;
11691;SDS011;33659;42.672;23.354;2022-07-24T06:58:38;9.05;;;6.68;;
11691;SDS011;33659;42.672;23.354;2022-07-24T07:01:05;10.48;;;7.05;;
11691;SDS011;33659;42.672;23.354;2022-07-24T07:03:32;10.23;;;6.45;;
11691;SDS011;33659;42.672;23.354;2022-07-24T07:06:00;9.90;;;6.68;;
11691;SDS011;33659;42.672;23.354;2022-07-24T07:08:27;16.40;;;7.85;;
11691;SDS011;33659;42.672;23.354;2022-07-24T07:10:54;9.00;;;6.97;;
11691;SDS011;33659;42.672;23.354;2022-07-24T07:13:20;8.65;;;6.47;;
11691;SDS011;33659;42.672;23.354;2022-07-24T07:15:47;13.30;;;6.95;;
11691;SDS011;33659;42.672;23.354;2022-07-24T07:18:14;15.10;;;6.75;;
11691;SDS011;33659;42.672;23.354;2022-07-24T07:20:41;12.73;;;7.00;;
11691;SDS011;33659;42.672;23.354;2022-07-24T07:23:09;10.90;;;6.03;;
11691;SDS011;33659;42.672;23.354;2022-07-24T07:25:36;8.82;;;6.30;;
11691;SDS011;33659;42.672;23.354;2022-07-24T07:28:03;11.50;;;6.47;;
11691;SDS011;33659;42.672;23.354;2022-07-24T07:30:30;11.43;;;6.82;;
11691;SDS011;33659;42.672;23.354;2022-07-24T07:32:56;11.43;;;6.53;;
11691;SDS011;33659;42.672;23.354;2022-07-24T07:35:23;12.52;;;6.43;;
11691;SDS011;33659;42.672;23.354;2022-07-24T07:37:50;14.20;;;6.22;;
11691;SDS011;33659;42.672;23.354;2022-07-24T07:40:18;11.63;;;6.38;;
11691;SDS011;33659;42.672;23.354;2022-07-24T07:42:45;8.48;;;6.72;;
11691;SDS011;33659;42.672;23.354;2022-07-24T07:45:12;12.95;;;6.28;;
11691;SDS011;33659;42.672;23.354;2022-07-24T07:47:38;11.02;;;6.30;;
11691;SDS011;33659;42.672;23.354;2022-07-24T07:50:06;12.25;;;6.25;;
11691;SDS011;33659;42.672;23.354;2022-07-24T07:52:33;12.02;;;6.53;;
11691;SDS011;33659;42.672;23.354;2022-07-24T07:55:00;12.50;;;6.60;;
11691;SDS011;33659;42.672;23.354;2022-07-24T07:57:28;16.10;;;6.88;;
11691;SDS011;33659;42.672;23.354;2022-07-24T07:59:55;10.73;;;7.10;;
11691;SDS011;33659;42.672;23.354;2022-07-24T08:02:22;12.73;;;6.72;;
11691;SDS011;33659;42.672;23.354;2022-07-24T08:04:49;11.00;;;6.05;;
11691;SDS011;33659;42.672;23.354;2022-07-24T08:07:16;10.70;;;6.72;;
11691;SDS011;33659;42.672;23.354;2022-07-24T08:09:42;9.73;;;6.43;;
11691;SDS011;33659;42.672;23.354;2022-07-24T08:12:10;12.70;;;6.45;;
11691;SDS011;33659;42.672;23.354;2022-07-24T08:14:38;12.82;;;6.63;;
11691;SDS011;33659;42.672;23.354;2022-07-24T08:17:04;13.40;;;6.65;;
11691;SDS011;33659;42.672;23.354;2022-07-24T08:19:31;10.15;;;6.50;;
11691;SDS011;33659;42.672;23.354;2022-07-24T08:21:58;11.50;;;6.38;;
11691;SDS011;33659;42.672;23.354;2022-07-24T08:24:25;15.32;;;6.45;;
11691;SDS011;33659;42.672;23.354;2022-07-24T08:26:51;9.50;;;6.38;;
11691;SDS011;33659;42.672;23.354;2022-07-24T08:29:18;14.10;;;5.80;;
11691;SDS011;33659;42.672;23.354;2022-07-24T08:31:46;9.35;;;5.82;;
11691;SDS011;33659;42.672;23.354;2022-07-24T08:34:13;10.30;;;6.63;;
11691;SDS011;33659;42.672;23.354;2022-07-24T08:36:40;13.38;;;6.18;;
11691;SDS011;33659;42.672;23.354;2022-07-24T08:39:10;13.23;;;6.22;;
11691;SDS011;33659;42.672;23.354;2022-07-24T08:41:37;14.55;;;6.72;;
11691;SDS011;33659;42.672;23.354;2022-07-24T08:44:04;12.05;;;6.55;;
11691;SDS011;33659;42.672;23.354;2022-07-24T08:46:32;11.90;;;6.30;;
11691;SDS011;33659;42.672;23.354;2022-07-24T08:49:00;7.28;;;5.65;;
11691;SDS011;33659;42.672;23.354;2022-07-24T08:51:30;12.43;;;6.18;;
11691;SDS011;33659;42.672;23.354;2022-07-24T08:53:58;13.27;;;6.55;;
11691;SDS011;33659;42.672;23.354;2022-07-24T08:56:27;11.00;;;7.00;;
11691;SDS011;33659;42.672;23.354;2022-07-24T08:58:55;15.80;;;8.10;;
11691;SDS011;33659;42.672;23.354;2022-07-24T09:01:22;10.50;;;6.45;;
11691;SDS011;33659;42.672;23.354;2022-07-24T09:03:48;11.80;;;6.10;;
11691;SDS011;33659;42.672;23.354;2022-07-24T09:06:17;11.32;;;7.43;;
11691;SDS011;33659;42.672;23.354;2022-07-24T09:08:56;8.20;;;6.03;;
11691;SDS011;33659;42.672;23.354;2022-07-24T09:11:23;11.35;;;7.30;;
11691;SDS011;33659;42.672;23.354;2022-07-24T09:13:50;11.38;;;7.60;;
11691;SDS011;33659;42.672;23.354;2022-07-24T09:16:36;15.02;;;7.25;;
11691;SDS011;33659;42.672;23.354;2022-07-24T09:19:03;13.30;;;7.18;;
11691;SDS011;33659;42.672;23.354;2022-07-24T09:21:34;12.05;;;7.40;;
11691;SDS011;33659;42.672;23.354;2022-07-24T09:24:06;10.02;;;6.93;;
11691;SDS011;33659;42.672;23.354;2022-07-24T09:26:44;12.75;;;7.30;;
11691;SDS011;33659;42.672;23.354;2022-07-24T09:29:13;12.25;;;7.07;;
11691;SDS011;33659;42.672;23.354;2022-07-24T09:31:50;16.25;;;7.10;;
11691;SDS011;33659;42.672;23.354;2022-07-24T09:34:19;13.23;;;7.45;;
11691;SDS011;33659;42.672;23.354;2022-07-24T09:36:57;12.95;;;6.88;;
11691;SDS011;33659;42.672;23.354;2022-07-24T09:39:25;13.95;;;7.47;;
11691;SDS011;33659;42.672;23.354;2022-07-24T09:41:53;11.20;;;7.28;;
11691;SDS011;33659;42.672;23.354;2022-07-24T09:44:21;13.13;;;7.22;;
11691;SDS011;33659;42.672;23.354;2022-07-24T09:46:59;9.38;;;6.45;;
11691;SDS011;33659;42.672;23.354;2022-07-24T09:49:28;9.90;;;6.95;;
11691;SDS011;33659;42.672;23.354;2022-07-24T09:52:13;10.95;;;6.63;;
11691;SDS011;33659;42.672;23.354;2022-07-24T09:54:43;10.23;;;7.25;;
11691;SDS011;33659;42.672;23.354;2022-07-24T09:57:15;9.48;;;6.18;;
11691;SDS011;33659;42.672;23.354;2022-07-24T09:59:48;13.07;;;6.15;;
11691;SDS011;33659;42.672;23.354;2022-07-24T10:02:16;16.55;;;6.50;;
11691;SDS011;33659;42.672;23.354;2022-07-24T10:04:44;15.32;;;5.82;;
11691;SDS011;33659;42.672;23.354;2022-07-24T10:07:14;11.50;;;6.38;;
11691;SDS011;33659;42.672;23.354;2022-07-24T10:09:43;10.68;;;5.60;;
11691;SDS011;33659;42.672;23.354;2022-07-24T10:12:12;10.88;;;6.57;;
11691;SDS011;33659;42.672;23.354;2022-07-24T10:14:40;10.48;;;5.97;;
11691;SDS011;33659;42.672;23.354;2022-07-24T10:17:08;9.68;;;6.28;;
11691;SDS011;33659;42.672;23.354;2022-07-24T10:19:38;14.63;;;5.53;;
11691;SDS011;33659;42.672;23.354;2022-07-24T10:22:09;8.25;;;6.35;;
11691;SDS011;33659;42.672;23.354;2022-07-24T10:24:54;13.45;;;7.47;;
11691;SDS011;33659;42.672;23.354;2022-07-24T10:27:26;8.85;;;5.63;;
11691;SDS011;33659;42.672;23.354;2022-07-24T10:29:55;10.20;;;5.75;;
11691;SDS011;33659;42.672;23.354;2022-07-24T10:32:24;6.80;;;5.10;;
11691;SDS011;33659;42.672;23.354;2022-07-24T10:34:55;6.57;;;5.55;;
11691;SDS011;33659;42.672;23.354;2022-07-24T10:37:32;9.73;;;5.57;;
11691;SDS011;33659;42.672;23.354;2022-07-24T10:40:08;11.63;;;5.82;;
11691;SDS011;33659;42.672;23.354;2022-07-24T10:45:37;12.20;;;5.20;;
11691;SDS011;33659;42.672;23.354;2022-07-24T10:48:25;9.57;;;5.75;;
11691;SDS011;33659;42.672;23.354;2022-07-24T10:51:00;8.73;;;5.28;;
11691;SDS011;33659;42.672;23.354;2022-07-24T10:53:48;7.28;;;6.18;;
11691;SDS011;33659;42.672;23.354;2022-07-24T10:56:22;7.70;;;5.38;;
11691;SDS011;33659;42.672;23.354;2022-07-24T11:01:37;6.95;;;5.53;;
11691;SDS011;33659;42.672;23.354;2022-07-24T11:04:24;7.07;;;5.10;;
11691;SDS011;33659;42.672;23.354;2022-07-24T11:06:53;6.50;;;5.00;;
11691;SDS011;33659;42.672;23.354;2022-07-24T11:09:21;5.57;;;5.03;;
11691;SDS011;33659;42.672;23.354;2022-07-24T11:12:06;9.65;;;5.78;;
11691;SDS011;33659;42.672;23.354;2022-07-24T11:14:49;7.78;;;5.22;;
11691;SDS011;33659;42.672;23.354;2022-07-24T11:17:35;6.22;;;4.78;;
11691;SDS011;33659;42.672;23.354;2022-07-24T11:20:03;7.70;;;5.43;;
11691;SDS011;33659;42.672;23.354;2022-07-24T11:22:38;10.90;;;5.25;;
11691;SDS011;33659;42.672;23.354;2022-07-24T11:25:12;7.95;;;5.07;;
11691;SDS011;33659;42.672;23.354;2022-07-24T11:27:43;8.80;;;6.03;;
11691;SDS011;33659;42.672;23.354;2022-07-24T11:30:15;7.95;;;5.20;;
11691;SDS011;33659;42.672;23.354;2022-07-24T11:32:42;8.90;;;5.20;;
11691;SDS011;33659;42.672;23.354;2022-07-24T11:35:09;7.38;;;5.20;;
11691;SDS011;33659;42.672;23.354;2022-07-24T11:37:38;8.32;;;5.65;;
11691;SDS011;33659;42.672;23.354;2022-07-24T11:40:06;8.18;;;5.60;;
11691;SDS011;33659;42.672;23.354;2022-07-24T11:42:34;8.52;;;5.13;;
11691;SDS011;33659;42.672;23.354;2022-07-24T11:45:03;9.80;;;5.82;;
11691;SDS011;33659;42.672;23.354;2022-07-24T11:47:31;6.95;;;5.28;;
11691;SDS011;33659;42.672;23.354;2022-07-24T11:49:59;6.47;;;5.25;;
11691;SDS011;33659;42.672;23.354;2022-07-24T11:52:28;5.75;;;5.25;;
11691;SDS011;33659;42.672;23.354;2022-07-24T11:54:59;7.53;;;5.60;;
11691;SDS011;33659;42.672;23.354;2022-07-24T11:57:29;6.10;;;5.22;;
11691;SDS011;33659;42.672;23.354;2022-07-24T11:59:57;10.35;;;5.93;;
11691;SDS011;33659;42.672;23.354;2022-07-24T12:02:26;5.65;;;5.15;;
11691;SDS011;33659;42.672;23.354;2022-07-24T12:04:53;6.13;;;5.53;;
11691;SDS011;33659;42.672;23.354;2022-07-24T12:07:20;7.43;;;5.40;;
11691;SDS011;33659;42.672;23.354;2022-07-24T12:09:49;6.93;;;5.45;;
11691;SDS011;33659;42.672;23.354;2022-07-24T12:12:18;9.73;;;5.60;;
11691;SDS011;33659;42.672;23.354;2022-07-24T12:14:46;7.30;;;5.65;;
11691;SDS011;33659;42.672;23.354;2022-07-24T12:17:13;9.63;;;5.13;;
11691;SDS011;33659;42.672;23.354;2022-07-24T12:19:43;8.63;;;5.25;;
11691;SDS011;33659;42.672;23.354;2022-07-24T12:22:17;5.93;;;5.00;;
11691;SDS011;33659;42.672;23.354;2022-07-24T12:24:44;8.20;;;5.45;;
11691;SDS011;33659;42.672;23.354;2022-07-24T12:27:11;9.63;;;5.55;;
11691;SDS011;33659;42.672;23.354;2022-07-24T12:29:41;7.93;;;5.40;;
11691;SDS011;33659;42.672;23.354;2022-07-24T12:32:15;10.93;;;5.85;;
11691;SDS011;33659;42.672;23.354;2022-07-24T12:34:46;8.15;;;5.47;;
11691;SDS011;33659;42.672;23.354;2022-07-24T12:37:14;7.03;;;5.32;;
11691;SDS011;33659;42.672;23.354;2022-07-24T12:39:44;8.32;;;6.82;;
11691;SDS011;33659;42.672;23.354;2022-07-24T12:42:12;7.93;;;5.57;;
11691;SDS011;33659;42.672;23.354;2022-07-24T12:44:40;11.60;;;5.03;;
11691;SDS011;33659;42.672;23.354;2022-07-24T12:47:08;10.60;;;5.15;;
11691;SDS011;33659;42.672;23.354;2022-07-24T12:49:39;8.77;;;5.57;;
11691;SDS011;33659;42.672;23.354;2022-07-24T12:52:18;12.45;;;6.07;;
11691;SDS011;33659;42.672;23.354;2022-07-24T12:54:46;11.25;;;5.78;;
11691;SDS011;33659;42.672;23.354;2022-07-24T12:57:13;6.88;;;5.20;;
11691;SDS011;33659;42.672;23.354;2022-07-24T12:59:41;9.13;;;5.50;;
11691;SDS011;33659;42.672;23.354;2022-07-24T13:02:09;8.52;;;5.80;;
11691;SDS011;33659;42.672;23.354;2022-07-24T13:04:40;8.82;;;5.22;;
11691;SDS011;33659;42.672;23.354;2022-07-24T13:07:09;7.07;;;5.28;;
11691;SDS011;33659;42.672;23.354;2022-07-24T13:09:36;10.52;;;5.57;;
11691;SDS011;33659;42.672;23.354;2022-07-24T13:12:04;8.90;;;5.70;;
11691;SDS011;33659;42.672;23.354;2022-07-24T13:14:31;7.68;;;5.70;;
11691;SDS011;33659;42.672;23.354;2022-07-24T13:17:01;9.55;;;5.43;;
11691;SDS011;33659;42.672;23.354;2022-07-24T13:19:29;14.85;;;7.03;;
11691;SDS011;33659;42.672;23.354;2022-07-24T13:21:56;9.40;;;5.47;;
11691;SDS011;33659;42.672;23.354;2022-07-24T13:24:25;9.07;;;5.82;;
11691;SDS011;33659;42.672;23.354;2022-07-24T13:26:51;6.70;;;5.50;;
11691;SDS011;33659;42.672;23.354;2022-07-24T13:29:18;10.73;;;5.57;;
11691;SDS011;33659;42.672;23.354;2022-07-24T13:31:45;6.32;;;5.22;;
11691;SDS011;33659;42.672;23.354;2022-07-24T13:34:12;6.28;;;4.82;;
11691;SDS011;33659;42.672;23.354;2022-07-24T13:36:39;8.85;;;4.90;;
11691;SDS011;33659;42.672;23.354;2022-07-24T13:39:06;5.47;;;4.90;;
11691;SDS011;33659;42.672;23.354;2022-07-24T13:41:35;8.85;;;4.88;;
11691;SDS011;33659;42.672;23.354;2022-07-24T13:44:03;6.78;;;4.65;;
11691;SDS011;33659;42.672;23.354;2022-07-24T13:46:31;7.80;;;5.45;;
11691;SDS011;33659;42.672;23.354;2022-07-24T13:48:59;9.57;;;5.15;;
11691;SDS011;33659;42.672;23.354;2022-07-24T13:51:27;12.80;;;5.20;;
11691;SDS011;33659;42.672;23.354;2022-07-24T13:53:54;7.55;;;5.03;;
11691;SDS011;33659;42.672;23.354;2022-07-24T13:56:21;6.60;;;5.60;;
11691;SDS011;33659;42.672;23.354;2022-07-24T13:58:50;6.43;;;5.63;;
11691;SDS011;33659;42.672;23.354;2022-07-24T14:01:16;7.40;;;5.07;;
11691;SDS011;33659;42.672;23.354;2022-07-24T14:03:44;7.00;;;5.47;;
11691;SDS011;33659;42.672;23.354;2022-07-24T14:06:12;5.82;;;5.32;;
11691;SDS011;33659;42.672;23.354;2022-07-24T14:08:39;7.30;;;6.10;;
11691;SDS011;33659;42.672;23.354;2022-07-24T14:11:07;6.10;;;5.50;;
11691;SDS011;33659;42.672;23.354;2022-07-24T14:13:34;6.70;;;4.80;;
11691;SDS011;33659;42.672;23.354;2022-07-24T14:16:02;14.40;;;6.10;;
11691;SDS011;33659;42.672;23.354;2022-07-24T14:18:30;17.23;;;6.22;;
11691;SDS011;33659;42.672;23.354;2022-07-24T14:20:56;11.45;;;5.13;;
11691;SDS011;33659;42.672;23.354;2022-07-24T14:23:23;15.80;;;6.05;;
11691;SDS011;33659;42.672;23.354;2022-07-24T14:25:50;10.05;;;5.97;;
11691;SDS011;33659;42.672;23.354;2022-07-24T14:28:17;14.93;;;6.35;;
11691;SDS011;33659;42.672;23.354;2022-07-24T14:30:44;17.75;;;6.20;;
11691;SDS011;33659;42.672;23.354;2022-07-24T14:33:13;8.35;;;5.93;;
11691;SDS011;33659;42.672;23.354;2022-07-24T14:35:39;8.80;;;6.57;;
11691;SDS011;33659;42.672;23.354;2022-07-24T14:38:06;6.50;;;5.90;;
11691;SDS011;33659;42.672;23.354;2022-07-24T14:40:33;6.75;;;5.93;;